sensor_id;sensor_type;location;lat;lon;timestamp;temperature;humidity
26954;DHT22;14508;50.924;11.600;2023-06-22T00:00:34;20.70;99.90
26954;DHT22;14508;50.924;11.600;2023-06-22T00:03:02;20.60;99.90
26954;DHT22;14508;50.924;11.600;2023-06-22T00:05:30;20.60;99.90
26954;DHT22;14508;50.924;11.600;2023-06-22T00:08:02;20.60;99.90
26954;DHT22;14508;50.924;11.600;2023-06-22T00:10:30;20.50;99.90
26954;DHT22;14508;50.924;11.600;2023-06-22T00:12:58;20.50;99.90
26954;DHT22;14508;50.924;11.600;2023-06-22T00:15:27;20.40;99.90
26954;DHT22;14508;50.924;11.600;2023-06-22T00:17:55;20.40;99.90
26954;DHT22;14508;50.924;11.600;2023-06-22T00:20:24;20.30;99.90
26954;DHT22;14508;50.924;11.600;2023-06-22T00:22:55;20.30;99.90
26954;DHT22;14508;50.924;11.600;2023-06-22T00:25:24;20.20;99.90
26954;DHT22;14508;50.924;11.600;2023-06-22T00:27:52;20.20;99.90
26954;DHT22;14508;50.924;11.600;2023-06-22T00:30:20;20.20;99.90
26954;DHT22;14508;50.924;11.600;2023-06-22T00:32:48;20.10;99.90
26954;DHT22;14508;50.924;11.600;2023-06-22T00:35:16;20.10;99.90
26954;DHT22;14508;50.924;11.600;2023-06-22T00:37:44;20.00;99.90
26954;DHT22;14508;50.924;11.600;2023-06-22T00:40:13;20.00;99.90
26954;DHT22;14508;50.924;11.600;2023-06-22T00:42:43;20.00;99.90
26954;DHT22;14508;50.924;11.600;2023-06-22T00:45:11;19.90;99.90
26954;DHT22;14508;50.924;11.600;2023-06-22T00:47:39;19.90;99.90
26954;DHT22;14508;50.924;11.600;2023-06-22T00:50:13;19.90;99.90
26954;DHT22;14508;50.924;11.600;2023-06-22T00:52:45;19.80;99.90
26954;DHT22;14508;50.924;11.600;2023-06-22T00:55:13;19.80;99.90
26954;DHT22;14508;50.924;11.600;2023-06-22T00:57:46;19.80;99.90
26954;DHT22;14508;50.924;11.600;2023-06-22T01:00:15;19.80;99.90
26954;DHT22;14508;50.924;11.600;2023-06-22T01:02:46;19.70;99.90
26954;DHT22;14508;50.924;11.600;2023-06-22T01:05:19;19.70;99.90
26954;DHT22;14508;50.924;11.600;2023-06-22T01:07:56;19.70;99.90
26954;DHT22;14508;50.924;11.600;2023-06-22T01:10:32;19.70;99.90
26954;DHT22;14508;50.924;11.600;2023-06-22T01:13:07;19.60;99.90
26954;DHT22;14508;50.924;11.600;2023-06-22T01:15:42;19.60;99.90
26954;DHT22;14508;50.924;11.600;2023-06-22T01:18:13;19.50;99.90
26954;DHT22;14508;50.924;11.600;2023-06-22T01:20:43;19.50;99.90
26954;DHT22;14508;50.924;11.600;2023-06-22T01:23:23;19.50;99.90
26954;DHT22;14508;50.924;11.600;2023-06-22T01:25:59;19.40;99.90
26954;DHT22;14508;50.924;11.600;2023-06-22T01:28:41;19.40;99.90
26954;DHT22;14508;50.924;11.600;2023-06-22T01:31:12;19.40;99.90
26954;DHT22;14508;50.924;11.600;2023-06-22T01:33:43;19.40;99.90
26954;DHT22;14508;50.924;11.600;2023-06-22T01:36:13;19.40;99.90
26954;DHT22;14508;50.924;11.600;2023-06-22T01:38:42;19.30;99.90
26954;DHT22;14508;50.924;11.600;2023-06-22T01:41:11;19.30;99.90
26954;DHT22;14508;50.924;11.600;2023-06-22T01:43:41;19.30;99.90
26954;DHT22;14508;50.924;11.600;2023-06-22T01:46:11;19.20;99.90
26954;DHT22;14508;50.924;11.600;2023-06-22T01:48:40;19.20;99.90
26954;DHT22;14508;50.924;11.600;2023-06-22T01:51:08;19.20;99.90
26954;DHT22;14508;50.924;11.600;2023-06-22T01:53:36;19.10;99.90
26954;DHT22;14508;50.924;11.600;2023-06-22T01:56:04;19.10;99.90
26954;DHT22;14508;50.924;11.600;2023-06-22T01:58:33;19.10;99.90
26954;DHT22;14508;50.924;11.600;2023-06-22T02:01:10;19.00;99.90
26954;DHT22;14508;50.924;11.600;2023-06-22T02:03:42;19.00;99.90
26954;DHT22;14508;50.924;11.600;2023-06-22T02:06:16;19.00;99.90
26954;DHT22;14508;50.924;11.600;2023-06-22T02:08:48;18.90;99.90
26954;DHT22;14508;50.924;11.600;2023-06-22T02:11:19;18.90;99.90
26954;DHT22;14508;50.924;11.600;2023-06-22T02:13:49;18.90;99.90
26954;DHT22;14508;50.924;11.600;2023-06-22T02:16:19;18.90;99.90
26954;DHT22;14508;50.924;11.600;2023-06-22T02:18:48;18.90;99.90
26954;DHT22;14508;50.924;11.600;2023-06-22T02:21:17;18.90;99.90
26954;DHT22;14508;50.924;11.600;2023-06-22T02:23:46;18.90;99.90
26954;DHT22;14508;50.924;11.600;2023-06-22T02:26:15;18.80;99.90
26954;DHT22;14508;50.924;11.600;2023-06-22T02:28:43;18.80;99.90
26954;DHT22;14508;50.924;11.600;2023-06-22T02:31:12;18.80;99.90
26954;DHT22;14508;50.924;11.600;2023-06-22T02:33:41;18.80;99.90
26954;DHT22;14508;50.924;11.600;2023-06-22T02:36:12;18.80;99.90
26954;DHT22;14508;50.924;11.600;2023-06-22T02:38:41;18.80;99.90
26954;DHT22;14508;50.924;11.600;2023-06-22T02:41:12;18.80;99.90
26954;DHT22;14508;50.924;11.600;2023-06-22T02:43:41;18.80;99.90
26954;DHT22;14508;50.924;11.600;2023-06-22T02:46:10;18.70;99.90
26954;DHT22;14508;50.924;11.600;2023-06-22T02:48:38;18.70;99.90
26954;DHT22;14508;50.924;11.600;2023-06-22T02:51:07;18.70;99.90
26954;DHT22;14508;50.924;11.600;2023-06-22T02:53:37;18.60;99.90
26954;DHT22;14508;50.924;11.600;2023-06-22T02:56:05;18.60;99.90
26954;DHT22;14508;50.924;11.600;2023-06-22T02:58:36;18.60;99.90
26954;DHT22;14508;50.924;11.600;2023-06-22T03:01:09;18.60;99.90
26954;DHT22;14508;50.924;11.600;2023-06-22T03:03:41;18.60;99.90
26954;DHT22;14508;50.924;11.600;2023-06-22T03:06:10;18.60;99.90
26954;DHT22;14508;50.924;11.600;2023-06-22T03:08:40;18.70;99.90
26954;DHT22;14508;50.924;11.600;2023-06-22T03:11:10;18.70;99.90
26954;DHT22;14508;50.924;11.600;2023-06-22T03:13:38;18.70;99.90
26954;DHT22;14508;50.924;11.600;2023-06-22T03:16:06;18.70;99.90
26954;DHT22;14508;50.924;11.600;2023-06-22T03:18:34;18.70;99.90
26954;DHT22;14508;50.924;11.600;2023-06-22T03:21:02;18.70;99.90
26954;DHT22;14508;50.924;11.600;2023-06-22T03:23:32;18.70;99.90
26954;DHT22;14508;50.924;11.600;2023-06-22T03:26:00;18.70;99.90
26954;DHT22;14508;50.924;11.600;2023-06-22T03:28:28;18.70;99.90
26954;DHT22;14508;50.924;11.600;2023-06-22T03:30:57;18.70;99.90
26954;DHT22;14508;50.924;11.600;2023-06-22T03:33:25;18.70;99.90
26954;DHT22;14508;50.924;11.600;2023-06-22T03:35:57;18.70;99.90
26954;DHT22;14508;50.924;11.600;2023-06-22T03:38:25;18.70;99.90
26954;DHT22;14508;50.924;11.600;2023-06-22T03:40:57;18.80;99.90
26954;DHT22;14508;50.924;11.600;2023-06-22T03:43:25;18.80;99.90
26954;DHT22;14508;50.924;11.600;2023-06-22T03:45:55;18.80;99.90
26954;DHT22;14508;50.924;11.600;2023-06-22T03:48:23;18.90;99.90
26954;DHT22;14508;50.924;11.600;2023-06-22T03:50:51;18.90;99.90
26954;DHT22;14508;50.924;11.600;2023-06-22T03:53:19;18.90;99.90
26954;DHT22;14508;50.924;11.600;2023-06-22T03:55:51;19.00;99.90
26954;DHT22;14508;50.924;11.600;2023-06-22T03:58:21;19.00;99.90
26954;DHT22;14508;50.924;11.600;2023-06-22T04:00:51;19.10;99.90
26954;DHT22;14508;50.924;11.600;2023-06-22T04:03:19;19.20;99.90
26954;DHT22;14508;50.924;11.600;2023-06-22T04:05:48;19.20;99.90
26954;DHT22;14508;50.924;11.600;2023-06-22T04:08:16;19.30;99.90
26954;DHT22;14508;50.924;11.600;2023-06-22T04:10:44;19.30;99.90
26954;DHT22;14508;50.924;11.600;2023-06-22T04:13:12;19.40;99.90
26954;DHT22;14508;50.924;11.600;2023-06-22T04:15:41;19.40;99.90
26954;DHT22;14508;50.924;11.600;2023-06-22T04:18:09;19.50;99.90
26954;DHT22;14508;50.924;11.600;2023-06-22T04:20:37;19.60;99.90
26954;DHT22;14508;50.924;11.600;2023-06-22T04:23:05;19.60;99.90
26954;DHT22;14508;50.924;11.600;2023-06-22T04:25:33;19.60;99.90
26954;DHT22;14508;50.924;11.600;2023-06-22T04:28:01;19.70;99.90
26954;DHT22;14508;50.924;11.600;2023-06-22T04:30:30;19.70;99.90
26954;DHT22;14508;50.924;11.600;2023-06-22T04:32:59;19.70;99.90
26954;DHT22;14508;50.924;11.600;2023-06-22T04:35:27;19.80;99.90
26954;DHT22;14508;50.924;11.600;2023-06-22T04:37:58;19.80;99.90
26954;DHT22;14508;50.924;11.600;2023-06-22T04:40:26;19.90;99.90
26954;DHT22;14508;50.924;11.600;2023-06-22T04:42:54;19.90;99.90
26954;DHT22;14508;50.924;11.600;2023-06-22T04:45:22;19.90;99.90
26954;DHT22;14508;50.924;11.600;2023-06-22T04:47:50;20.00;99.90
26954;DHT22;14508;50.924;11.600;2023-06-22T04:50:20;20.00;99.90
26954;DHT22;14508;50.924;11.600;2023-06-22T04:52:50;20.00;99.90
26954;DHT22;14508;50.924;11.600;2023-06-22T04:55:19;20.00;99.90
26954;DHT22;14508;50.924;11.600;2023-06-22T04:57:48;20.10;99.90
26954;DHT22;14508;50.924;11.600;2023-06-22T05:00:17;20.10;99.90
26954;DHT22;14508;50.924;11.600;2023-06-22T05:02:46;20.20;99.90
26954;DHT22;14508;50.924;11.600;2023-06-22T05:05:15;20.30;99.90
26954;DHT22;14508;50.924;11.600;2023-06-22T05:07:45;20.40;99.90
26954;DHT22;14508;50.924;11.600;2023-06-22T05:10:14;20.50;99.90
26954;DHT22;14508;50.924;11.600;2023-06-22T05:12:42;20.50;99.90
26954;DHT22;14508;50.924;11.600;2023-06-22T05:15:10;20.50;99.90
26954;DHT22;14508;50.924;11.600;2023-06-22T05:17:38;20.50;99.90
26954;DHT22;14508;50.924;11.600;2023-06-22T05:20:10;20.50;99.90
26954;DHT22;14508;50.924;11.600;2023-06-22T05:22:39;20.50;99.90
26954;DHT22;14508;50.924;11.600;2023-06-22T05:25:10;20.40;99.90
26954;DHT22;14508;50.924;11.600;2023-06-22T05:27:39;20.40;99.90
26954;DHT22;14508;50.924;11.600;2023-06-22T05:30:08;20.40;99.90
26954;DHT22;14508;50.924;11.600;2023-06-22T05:32:36;20.50;99.90
26954;DHT22;14508;50.924;11.600;2023-06-22T05:35:05;20.60;99.90
26954;DHT22;14508;50.924;11.600;2023-06-22T05:37:33;20.80;99.90
26954;DHT22;14508;50.924;11.600;2023-06-22T05:40:01;21.00;99.90
26954;DHT22;14508;50.924;11.600;2023-06-22T05:42:31;21.10;99.90
26954;DHT22;14508;50.924;11.600;2023-06-22T05:44:59;21.30;99.90
26954;DHT22;14508;50.924;11.600;2023-06-22T05:47:27;21.40;99.90
26954;DHT22;14508;50.924;11.600;2023-06-22T05:49:54;21.60;99.90
26954;DHT22;14508;50.924;11.600;2023-06-22T05:52:22;21.80;99.90
26954;DHT22;14508;50.924;11.600;2023-06-22T05:54:50;22.00;99.90
26954;DHT22;14508;50.924;11.600;2023-06-22T05:57:18;22.20;99.90
26954;DHT22;14508;50.924;11.600;2023-06-22T05:59:49;22.30;99.90
26954;DHT22;14508;50.924;11.600;2023-06-22T06:02:18;22.40;99.90
26954;DHT22;14508;50.924;11.600;2023-06-22T06:04:46;22.40;99.90
26954;DHT22;14508;50.924;11.600;2023-06-22T06:07:14;22.40;99.90
26954;DHT22;14508;50.924;11.600;2023-06-22T06:09:42;22.30;99.90
26954;DHT22;14508;50.924;11.600;2023-06-22T06:12:14;22.40;99.90
26954;DHT22;14508;50.924;11.600;2023-06-22T06:14:42;22.40;99.90
26954;DHT22;14508;50.924;11.600;2023-06-22T06:17:11;22.40;99.90
26954;DHT22;14508;50.924;11.600;2023-06-22T06:19:39;22.50;99.90
26954;DHT22;14508;50.924;11.600;2023-06-22T06:22:08;22.50;99.90
26954;DHT22;14508;50.924;11.600;2023-06-22T06:24:35;22.50;99.90
26954;DHT22;14508;50.924;11.600;2023-06-22T06:27:03;22.60;99.90
26954;DHT22;14508;50.924;11.600;2023-06-22T06:29:32;22.80;99.90
26954;DHT22;14508;50.924;11.600;2023-06-22T06:32:00;22.90;99.90
26954;DHT22;14508;50.924;11.600;2023-06-22T06:34:29;23.00;99.90
26954;DHT22;14508;50.924;11.600;2023-06-22T06:36:57;23.10;99.90
26954;DHT22;14508;50.924;11.600;2023-06-22T06:39:25;23.10;99.90
26954;DHT22;14508;50.924;11.600;2023-06-22T06:41:53;23.20;99.90
26954;DHT22;14508;50.924;11.600;2023-06-22T06:44:21;23.20;99.90
26954;DHT22;14508;50.924;11.600;2023-06-22T06:46:49;23.20;99.90
26954;DHT22;14508;50.924;11.600;2023-06-22T06:49:17;23.40;99.90
26954;DHT22;14508;50.924;11.600;2023-06-22T06:51:46;23.60;99.90
26954;DHT22;14508;50.924;11.600;2023-06-22T06:54:14;23.80;99.90
26954;DHT22;14508;50.924;11.600;2023-06-22T06:56:42;24.00;99.90
26954;DHT22;14508;50.924;11.600;2023-06-22T06:59:14;24.10;99.90
26954;DHT22;14508;50.924;11.600;2023-06-22T07:01:42;24.30;99.90
26954;DHT22;14508;50.924;11.600;2023-06-22T07:04:11;24.30;99.90
26954;DHT22;14508;50.924;11.600;2023-06-22T07:06:39;24.40;99.90
26954;DHT22;14508;50.924;11.600;2023-06-22T07:09:08;24.50;99.90
26954;DHT22;14508;50.924;11.600;2023-06-22T07:11:36;24.40;99.90
26954;DHT22;14508;50.924;11.600;2023-06-22T07:14:04;24.50;99.90
26954;DHT22;14508;50.924;11.600;2023-06-22T07:16:32;24.70;99.90
26954;DHT22;14508;50.924;11.600;2023-06-22T07:19:00;24.80;99.90
26954;DHT22;14508;50.924;11.600;2023-06-22T07:21:28;25.00;99.90
26954;DHT22;14508;50.924;11.600;2023-06-22T07:23:55;25.20;99.90
26954;DHT22;14508;50.924;11.600;2023-06-22T07:26:25;25.20;99.90
26954;DHT22;14508;50.924;11.600;2023-06-22T07:28:52;25.40;99.90
26954;DHT22;14508;50.924;11.600;2023-06-22T07:31:20;25.50;99.90
26954;DHT22;14508;50.924;11.600;2023-06-22T07:33:48;25.60;99.90
26954;DHT22;14508;50.924;11.600;2023-06-22T07:36:16;25.60;99.90
26954;DHT22;14508;50.924;11.600;2023-06-22T07:38:44;25.70;99.90
26954;DHT22;14508;50.924;11.600;2023-06-22T07:41:13;25.70;99.90
26954;DHT22;14508;50.924;11.600;2023-06-22T07:43:43;25.70;99.90
26954;DHT22;14508;50.924;11.600;2023-06-22T07:46:11;25.80;99.90
26954;DHT22;14508;50.924;11.600;2023-06-22T07:48:38;25.80;99.90
26954;DHT22;14508;50.924;11.600;2023-06-22T07:51:08;26.00;99.90
26954;DHT22;14508;50.924;11.600;2023-06-22T07:53:39;26.00;99.90
26954;DHT22;14508;50.924;11.600;2023-06-22T07:56:07;26.10;99.90
26954;DHT22;14508;50.924;11.600;2023-06-22T07:58:37;26.10;99.60
26954;DHT22;14508;50.924;11.600;2023-06-22T08:01:06;26.10;98.80
26954;DHT22;14508;50.924;11.600;2023-06-22T08:03:36;26.20;98.50
26954;DHT22;14508;50.924;11.600;2023-06-22T08:06:04;26.30;98.10
26954;DHT22;14508;50.924;11.600;2023-06-22T08:08:32;26.40;97.60
26954;DHT22;14508;50.924;11.600;2023-06-22T08:11:00;26.50;96.60
26954;DHT22;14508;50.924;11.600;2023-06-22T08:13:28;26.60;96.30
26954;DHT22;14508;50.924;11.600;2023-06-22T08:15:56;26.60;95.90
26954;DHT22;14508;50.924;11.600;2023-06-22T08:18:25;26.80;95.90
26954;DHT22;14508;50.924;11.600;2023-06-22T08:20:53;26.90;94.70
26954;DHT22;14508;50.924;11.600;2023-06-22T08:23:21;26.90;93.20
26954;DHT22;14508;50.924;11.600;2023-06-22T08:25:49;27.00;93.80
26954;DHT22;14508;50.924;11.600;2023-06-22T08:28:17;27.20;92.20
26954;DHT22;14508;50.924;11.600;2023-06-22T08:30:45;27.30;87.80
26954;DHT22;14508;50.924;11.600;2023-06-22T08:33:13;27.50;79.40
26954;DHT22;14508;50.924;11.600;2023-06-22T08:35:55;27.60;77.00
26954;DHT22;14508;50.924;11.600;2023-06-22T08:38:23;27.80;75.00
26954;DHT22;14508;50.924;11.600;2023-06-22T08:40:51;27.90;72.20
26954;DHT22;14508;50.924;11.600;2023-06-22T08:43:19;28.00;70.10
26954;DHT22;14508;50.924;11.600;2023-06-22T08:45:47;28.10;67.60
26954;DHT22;14508;50.924;11.600;2023-06-22T08:48:14;28.30;65.80
26954;DHT22;14508;50.924;11.600;2023-06-22T08:50:42;28.50;64.70
26954;DHT22;14508;50.924;11.600;2023-06-22T08:53:12;28.60;62.00
26954;DHT22;14508;50.924;11.600;2023-06-22T08:55:39;28.60;60.50
26954;DHT22;14508;50.924;11.600;2023-06-22T08:58:07;28.70;60.00
26954;DHT22;14508;50.924;11.600;2023-06-22T09:00:35;28.80;60.20
26954;DHT22;14508;50.924;11.600;2023-06-22T09:03:04;28.90;60.10
26954;DHT22;14508;50.924;11.600;2023-06-22T09:05:32;29.00;59.70
26954;DHT22;14508;50.924;11.600;2023-06-22T09:08:00;29.10;58.00
26954;DHT22;14508;50.924;11.600;2023-06-22T09:10:29;29.20;57.90
26954;DHT22;14508;50.924;11.600;2023-06-22T09:12:58;29.30;57.60
26954;DHT22;14508;50.924;11.600;2023-06-22T09:15:26;29.40;57.50
26954;DHT22;14508;50.924;11.600;2023-06-22T09:17:54;29.50;56.70
26954;DHT22;14508;50.924;11.600;2023-06-22T09:20:22;29.50;56.30
26954;DHT22;14508;50.924;11.600;2023-06-22T09:22:50;29.50;56.20
26954;DHT22;14508;50.924;11.600;2023-06-22T09:25:18;29.60;56.00
26954;DHT22;14508;50.924;11.600;2023-06-22T09:27:48;29.60;56.30
26954;DHT22;14508;50.924;11.600;2023-06-22T09:30:16;29.60;56.00
26954;DHT22;14508;50.924;11.600;2023-06-22T09:32:44;29.70;56.10
26954;DHT22;14508;50.924;11.600;2023-06-22T09:35:12;29.80;56.10
26954;DHT22;14508;50.924;11.600;2023-06-22T09:37:40;30.00;55.30
26954;DHT22;14508;50.924;11.600;2023-06-22T09:40:09;30.10;54.30
26954;DHT22;14508;50.924;11.600;2023-06-22T09:42:39;30.10;54.70
26954;DHT22;14508;50.924;11.600;2023-06-22T09:45:09;30.10;53.90
26954;DHT22;14508;50.924;11.600;2023-06-22T09:47:37;30.20;53.60
26954;DHT22;14508;50.924;11.600;2023-06-22T09:50:05;30.20;53.60
26954;DHT22;14508;50.924;11.600;2023-06-22T09:52:33;30.20;53.90
26954;DHT22;14508;50.924;11.600;2023-06-22T09:55:14;30.20;53.70
26954;DHT22;14508;50.924;11.600;2023-06-22T09:57:43;30.20;54.10
26954;DHT22;14508;50.924;11.600;2023-06-22T10:00:13;30.20;53.90
26954;DHT22;14508;50.924;11.600;2023-06-22T10:02:42;30.30;53.90
26954;DHT22;14508;50.924;11.600;2023-06-22T10:05:11;30.60;54.00
26954;DHT22;14508;50.924;11.600;2023-06-22T10:07:39;30.70;53.00
26954;DHT22;14508;50.924;11.600;2023-06-22T10:10:11;30.80;52.30
26954;DHT22;14508;50.924;11.600;2023-06-22T10:12:42;31.00;52.50
26954;DHT22;14508;50.924;11.600;2023-06-22T10:15:12;31.00;52.10
26954;DHT22;14508;50.924;11.600;2023-06-22T10:17:40;31.00;52.20
26954;DHT22;14508;50.924;11.600;2023-06-22T10:20:09;31.00;51.60
26954;DHT22;14508;50.924;11.600;2023-06-22T10:22:40;31.10;51.70
26954;DHT22;14508;50.924;11.600;2023-06-22T10:25:09;31.10;51.80
26954;DHT22;14508;50.924;11.600;2023-06-22T10:27:37;31.00;51.50
26954;DHT22;14508;50.924;11.600;2023-06-22T10:30:07;31.00;51.70
26954;DHT22;14508;50.924;11.600;2023-06-22T10:32:37;31.10;51.70
26954;DHT22;14508;50.924;11.600;2023-06-22T10:35:06;31.00;51.10
26954;DHT22;14508;50.924;11.600;2023-06-22T10:37:35;30.80;51.90
26954;DHT22;14508;50.924;11.600;2023-06-22T10:40:03;30.80;51.70
26954;DHT22;14508;50.924;11.600;2023-06-22T10:42:32;30.80;51.70
26954;DHT22;14508;50.924;11.600;2023-06-22T10:45:00;31.00;51.70
26954;DHT22;14508;50.924;11.600;2023-06-22T10:47:28;31.10;51.40
26954;DHT22;14508;50.924;11.600;2023-06-22T10:49:57;31.10;51.10
26954;DHT22;14508;50.924;11.600;2023-06-22T10:52:25;30.90;51.40
26954;DHT22;14508;50.924;11.600;2023-06-22T10:54:53;30.80;51.60
26954;DHT22;14508;50.924;11.600;2023-06-22T10:57:22;30.70;51.30
26954;DHT22;14508;50.924;11.600;2023-06-22T10:59:49;30.70;51.20
26954;DHT22;14508;50.924;11.600;2023-06-22T11:02:17;30.80;51.40
26954;DHT22;14508;50.924;11.600;2023-06-22T11:04:46;31.00;51.90
26954;DHT22;14508;50.924;11.600;2023-06-22T11:07:16;31.30;51.00
26954;DHT22;14508;50.924;11.600;2023-06-22T11:09:44;31.40;51.10
26954;DHT22;14508;50.924;11.600;2023-06-22T11:12:12;31.60;51.20
26954;DHT22;14508;50.924;11.600;2023-06-22T11:14:40;31.90;50.80
26954;DHT22;14508;50.924;11.600;2023-06-22T11:17:08;32.10;50.50
26954;DHT22;14508;50.924;11.600;2023-06-22T11:19:36;32.10;50.20
26954;DHT22;14508;50.924;11.600;2023-06-22T11:22:04;32.10;50.50
26954;DHT22;14508;50.924;11.600;2023-06-22T11:24:33;32.00;49.90
26954;DHT22;14508;50.924;11.600;2023-06-22T11:27:01;31.80;50.30
26954;DHT22;14508;50.924;11.600;2023-06-22T11:29:29;31.80;50.30
26954;DHT22;14508;50.924;11.600;2023-06-22T11:32:17;31.90;50.00
26954;DHT22;14508;50.924;11.600;2023-06-22T11:34:45;32.00;50.00
26954;DHT22;14508;50.924;11.600;2023-06-22T11:37:13;32.10;49.80
26954;DHT22;14508;50.924;11.600;2023-06-22T11:39:43;32.10;49.20
26954;DHT22;14508;50.924;11.600;2023-06-22T11:42:25;32.00;49.30
26954;DHT22;14508;50.924;11.600;2023-06-22T11:44:56;31.90;49.50
26954;DHT22;14508;50.924;11.600;2023-06-22T11:47:25;31.80;50.10
26954;DHT22;14508;50.924;11.600;2023-06-22T11:49:53;31.60;49.40
26954;DHT22;14508;50.924;11.600;2023-06-22T11:52:21;31.60;49.70
26954;DHT22;14508;50.924;11.600;2023-06-22T11:54:51;31.60;50.00
26954;DHT22;14508;50.924;11.600;2023-06-22T11:57:18;31.80;49.50
26954;DHT22;14508;50.924;11.600;2023-06-22T11:59:46;32.00;48.90
26954;DHT22;14508;50.924;11.600;2023-06-22T12:02:14;32.20;48.20
26954;DHT22;14508;50.924;11.600;2023-06-22T12:04:42;32.30;48.10
26954;DHT22;14508;50.924;11.600;2023-06-22T12:07:10;32.40;48.30
26954;DHT22;14508;50.924;11.600;2023-06-22T12:09:38;32.20;47.60
26954;DHT22;14508;50.924;11.600;2023-06-22T12:12:08;32.20;48.00
26954;DHT22;14508;50.924;11.600;2023-06-22T12:14:36;32.10;48.20
26954;DHT22;14508;50.924;11.600;2023-06-22T12:17:04;32.10;48.70
26954;DHT22;14508;50.924;11.600;2023-06-22T12:19:32;32.40;48.80
26954;DHT22;14508;50.924;11.600;2023-06-22T12:22:00;32.60;47.70
26954;DHT22;14508;50.924;11.600;2023-06-22T12:24:28;32.80;47.10
26954;DHT22;14508;50.924;11.600;2023-06-22T12:26:56;33.10;47.00
26954;DHT22;14508;50.924;11.600;2023-06-22T12:29:25;33.30;46.80
26954;DHT22;14508;50.924;11.600;2023-06-22T12:31:53;33.40;46.90
26954;DHT22;14508;50.924;11.600;2023-06-22T12:34:21;33.40;46.60
26954;DHT22;14508;50.924;11.600;2023-06-22T12:36:49;33.30;46.90
26954;DHT22;14508;50.924;11.600;2023-06-22T12:39:17;33.20;46.90
26954;DHT22;14508;50.924;11.600;2023-06-22T12:41:45;33.20;47.10
26954;DHT22;14508;50.924;11.600;2023-06-22T12:44:13;33.10;47.40
26954;DHT22;14508;50.924;11.600;2023-06-22T12:46:43;33.20;46.40
26954;DHT22;14508;50.924;11.600;2023-06-22T12:49:10;33.10;46.40
26954;DHT22;14508;50.924;11.600;2023-06-22T12:51:40;33.00;46.40
26954;DHT22;14508;50.924;11.600;2023-06-22T12:54:09;33.00;46.60
26954;DHT22;14508;50.924;11.600;2023-06-22T12:56:37;33.00;47.00
26954;DHT22;14508;50.924;11.600;2023-06-22T12:59:05;33.10;47.40
26954;DHT22;14508;50.924;11.600;2023-06-22T13:01:33;33.30;47.60
26954;DHT22;14508;50.924;11.600;2023-06-22T13:04:02;33.50;47.30
26954;DHT22;14508;50.924;11.600;2023-06-22T13:06:30;33.50;47.30
26954;DHT22;14508;50.924;11.600;2023-06-22T13:08:58;33.30;46.80
26954;DHT22;14508;50.924;11.600;2023-06-22T13:11:29;33.20;47.10
26954;DHT22;14508;50.924;11.600;2023-06-22T13:13:57;33.10;47.30
26954;DHT22;14508;50.924;11.600;2023-06-22T13:16:25;33.10;47.10
26954;DHT22;14508;50.924;11.600;2023-06-22T13:18:53;33.10;47.30
26954;DHT22;14508;50.924;11.600;2023-06-22T13:21:22;33.10;47.70
26954;DHT22;14508;50.924;11.600;2023-06-22T13:23:50;33.00;47.60
26954;DHT22;14508;50.924;11.600;2023-06-22T13:26:18;33.00;48.10
26954;DHT22;14508;50.924;11.600;2023-06-22T13:28:46;33.00;47.90
26954;DHT22;14508;50.924;11.600;2023-06-22T13:31:14;33.00;48.00
26954;DHT22;14508;50.924;11.600;2023-06-22T13:33:42;33.10;47.70
26954;DHT22;14508;50.924;11.600;2023-06-22T13:36:12;33.10;47.90
26954;DHT22;14508;50.924;11.600;2023-06-22T13:38:41;33.30;48.20
26954;DHT22;14508;50.924;11.600;2023-06-22T13:41:09;33.30;47.70
26954;DHT22;14508;50.924;11.600;2023-06-22T13:43:37;33.20;47.70
26954;DHT22;14508;50.924;11.600;2023-06-22T13:46:05;33.20;47.90
26954;DHT22;14508;50.924;11.600;2023-06-22T13:48:33;33.10;47.90
26954;DHT22;14508;50.924;11.600;2023-06-22T13:51:01;32.90;48.00
26954;DHT22;14508;50.924;11.600;2023-06-22T13:53:28;32.80;47.90
26954;DHT22;14508;50.924;11.600;2023-06-22T13:55:58;32.70;48.10
26954;DHT22;14508;50.924;11.600;2023-06-22T13:58:25;32.60;48.20
26954;DHT22;14508;50.924;11.600;2023-06-22T14:00:53;32.90;48.20
26954;DHT22;14508;50.924;11.600;2023-06-22T14:03:23;33.10;47.60
26954;DHT22;14508;50.924;11.600;2023-06-22T14:05:51;33.40;47.60
26954;DHT22;14508;50.924;11.600;2023-06-22T14:08:23;33.50;47.30
26954;DHT22;14508;50.924;11.600;2023-06-22T14:11:09;33.60;46.70
26954;DHT22;14508;50.924;11.600;2023-06-22T14:13:37;33.60;46.80
26954;DHT22;14508;50.924;11.600;2023-06-22T14:16:05;33.70;47.10
26954;DHT22;14508;50.924;11.600;2023-06-22T14:18:33;33.80;46.30
26954;DHT22;14508;50.924;11.600;2023-06-22T14:21:00;33.80;46.20
26954;DHT22;14508;50.924;11.600;2023-06-22T14:23:28;33.80;46.20
26954;DHT22;14508;50.924;11.600;2023-06-22T14:25:56;33.90;46.40
26954;DHT22;14508;50.924;11.600;2023-06-22T14:28:26;34.00;45.90
26954;DHT22;14508;50.924;11.600;2023-06-22T14:30:53;34.20;45.70
26954;DHT22;14508;50.924;11.600;2023-06-22T14:33:23;34.30;45.60
26954;DHT22;14508;50.924;11.600;2023-06-22T14:35:50;34.50;45.40
26954;DHT22;14508;50.924;11.600;2023-06-22T14:38:18;34.80;45.30
26954;DHT22;14508;50.924;11.600;2023-06-22T14:40:48;34.90;44.90
26954;DHT22;14508;50.924;11.600;2023-06-22T14:43:37;35.00;44.90
26954;DHT22;14508;50.924;11.600;2023-06-22T14:46:05;35.20;44.40
26954;DHT22;14508;50.924;11.600;2023-06-22T14:48:33;35.30;44.40
26954;DHT22;14508;50.924;11.600;2023-06-22T14:51:00;35.20;44.50
26954;DHT22;14508;50.924;11.600;2023-06-22T14:53:28;35.20;44.50
26954;DHT22;14508;50.924;11.600;2023-06-22T14:55:56;35.10;44.40
26954;DHT22;14508;50.924;11.600;2023-06-22T14:58:26;35.10;44.60
26954;DHT22;14508;50.924;11.600;2023-06-22T15:00:55;35.10;44.70
26954;DHT22;14508;50.924;11.600;2023-06-22T15:03:23;35.20;44.60
26954;DHT22;14508;50.924;11.600;2023-06-22T15:05:55;35.30;44.50
26954;DHT22;14508;50.924;11.600;2023-06-22T15:08:23;35.40;44.50
26954;DHT22;14508;50.924;11.600;2023-06-22T15:10:52;35.50;44.40
26954;DHT22;14508;50.924;11.600;2023-06-22T15:13:20;35.70;44.10
26954;DHT22;14508;50.924;11.600;2023-06-22T15:15:50;35.90;43.60
26954;DHT22;14508;50.924;11.600;2023-06-22T15:18:20;36.20;43.30
26954;DHT22;14508;50.924;11.600;2023-06-22T15:20:47;36.20;42.90
26954;DHT22;14508;50.924;11.600;2023-06-22T15:23:17;36.30;43.10
26954;DHT22;14508;50.924;11.600;2023-06-22T15:25:45;36.40;43.00